createdAt,value
2019-03-03T00:01:42.867Z,-4.51
2019-03-03T00:04:13.297Z,-4.53
2019-03-03T00:06:43.376Z,-4.52
2019-03-03T00:09:13.689Z,-4.48
2019-03-03T00:11:43.816Z,-4.47
2019-03-03T00:14:14.142Z,-4.56
2019-03-03T00:16:44.498Z,-4.54
2019-03-03T00:19:15.060Z,-4.55
2019-03-03T00:21:46.975Z,-4.54
2019-03-03T00:24:17.063Z,-4.60
2019-03-03T00:26:47.360Z,-4.60
2019-03-03T00:29:17.500Z,-4.60
2019-03-03T00:31:47.773Z,-4.55
2019-03-03T00:34:18.139Z,-4.55
2019-03-03T00:37:06.429Z,-4.57
2019-03-03T00:39:47.427Z,-4.53
2019-03-03T00:42:34.196Z,-4.52
2019-03-03T00:45:18.399Z,-4.58
2019-03-03T00:47:56.087Z,-4.52
2019-03-03T00:50:28.160Z,-4.52
2019-03-03T00:53:00.185Z,-4.58
2019-03-03T00:55:33.524Z,-4.56
2019-03-03T00:58:08.156Z,-4.56
2019-03-03T01:00:50.933Z,-4.58
2019-03-03T01:03:25.526Z,-4.56
2019-03-03T01:06:07.298Z,-4.54
2019-03-03T01:08:56.306Z,-4.54
2019-03-03T01:11:40.034Z,-4.51
2019-03-03T01:14:12.033Z,-4.55
2019-03-03T01:16:52.701Z,-4.59
2019-03-03T01:19:24.774Z,-4.61
2019-03-03T01:21:59.536Z,-4.65
2019-03-03T01:24:37.143Z,-4.66
2019-03-03T01:27:07.417Z,-4.64
2019-03-03T01:29:37.825Z,-4.60
2019-03-03T01:32:07.978Z,-4.59
2019-03-03T01:34:38.764Z,-4.60
2019-03-03T01:37:09.092Z,-4.58
2019-03-03T01:39:39.584Z,-4.60
2019-03-03T01:42:09.673Z,-4.62
2019-03-03T01:44:39.720Z,-4.66
2019-03-03T01:47:09.812Z,-4.65
2019-03-03T01:49:39.824Z,-4.60
2019-03-03T01:52:09.868Z,-4.61
2019-03-03T01:54:40.973Z,-4.60
2019-03-03T01:57:10.993Z,-4.63
2019-03-03T01:59:41.033Z,-4.64
2019-03-03T02:02:11.106Z,-4.59
2019-03-03T02:04:41.120Z,-4.49
2019-03-03T02:07:11.164Z,-4.40
2019-03-03T02:09:41.201Z,-4.38
2019-03-03T02:12:11.216Z,-4.33
2019-03-03T02:14:41.541Z,-4.31
2019-03-03T02:17:12.656Z,-4.25
2019-03-03T02:19:42.772Z,-4.14
2019-03-03T02:22:12.796Z,-3.99
2019-03-03T02:24:42.813Z,-3.81
2019-03-03T02:27:12.862Z,-3.58
2019-03-03T02:29:42.900Z,-3.42
2019-03-03T02:32:13.194Z,-3.28
2019-03-03T02:34:43.294Z,-3.16
2019-03-03T02:37:13.581Z,-3.02
2019-03-03T02:39:43.678Z,-2.86
2019-03-03T02:42:14.038Z,-2.73
2019-03-03T02:44:44.125Z,-2.65
2019-03-03T02:47:14.425Z,-2.56
2019-03-03T02:49:44.776Z,-2.50
2019-03-03T02:52:15.140Z,-2.42
2019-03-03T02:54:45.497Z,-2.36
2019-03-03T02:57:15.859Z,-2.29
2019-03-03T02:59:46.326Z,-2.23
2019-03-03T03:02:18.435Z,-2.20
2019-03-03T03:04:48.816Z,-2.15
2019-03-03T03:07:29.758Z,-2.09
2019-03-03T03:10:02.670Z,-2.07
2019-03-03T03:12:53.865Z,-1.97
2019-03-03T03:15:31.805Z,-1.95
2019-03-03T03:18:06.734Z,-1.97
2019-03-03T03:20:44.771Z,-1.94
2019-03-03T03:23:25.946Z,-1.89
2019-03-03T03:26:16.986Z,-1.86
2019-03-03T03:28:48.945Z,-1.85
2019-03-03T03:31:35.673Z,-1.81
2019-03-03T03:34:07.601Z,-1.77
2019-03-03T03:36:39.614Z,-1.75
2019-03-03T03:39:17.761Z,-1.82
2019-03-03T03:42:05.991Z,-1.84
2019-03-03T03:44:55.880Z,-1.80
2019-03-03T03:47:42.480Z,-1.87
2019-03-03T03:50:19.874Z,-1.86
2019-03-03T03:52:51.937Z,-1.78
2019-03-03T03:55:25.558Z,-1.71
2019-03-03T03:57:57.334Z,-1.69
2019-03-03T04:00:38.200Z,-1.67
2019-03-03T04:03:25.099Z,-1.59
2019-03-03T04:06:12.230Z,-1.47
2019-03-03T04:08:46.901Z,-1.35
2019-03-03T04:11:21.312Z,-1.34
2019-03-03T04:14:01.707Z,-1.37
2019-03-03T04:16:46.671Z,-1.36
2019-03-03T04:19:24.522Z,-1.32
2019-03-03T04:21:59.503Z,-1.26
2019-03-03T04:24:40.622Z,-1.25
2019-03-03T04:27:18.324Z,-1.24
2019-03-03T04:29:50.042Z,-1.28
2019-03-03T04:32:21.987Z,-1.31
2019-03-03T04:35:08.692Z,-1.21
2019-03-03T04:37:49.577Z,-1.23
2019-03-03T04:40:24.347Z,-1.24
2019-03-03T04:43:11.884Z,-1.26
2019-03-03T04:45:43.542Z,-1.23
2019-03-03T04:48:15.205Z,-1.16
2019-03-03T04:50:50.148Z,-1.11
2019-03-03T04:53:38.116Z,-1.10
2019-03-03T04:56:24.768Z,-1.09
2019-03-03T04:58:59.688Z,-1.07
2019-03-03T05:01:46.605Z,-1.07
2019-03-03T05:04:21.336Z,-0.96
2019-03-03T05:06:53.079Z,-1.02
2019-03-03T05:09:27.634Z,-1.00
2019-03-03T05:12:13.986Z,-0.89
2019-03-03T05:14:44.910Z,-0.88
2019-03-03T05:17:35.124Z,-0.85
2019-03-03T05:20:11.403Z,-0.70
2019-03-03T05:22:41.434Z,-0.72
2019-03-03T05:25:11.473Z,-0.66
2019-03-03T05:27:41.478Z,-0.65
2019-03-03T05:30:14.757Z,-0.65
2019-03-03T05:32:45.017Z,-0.72
2019-03-03T05:35:15.118Z,-0.65
2019-03-03T05:37:45.431Z,-0.67
2019-03-03T05:40:15.536Z,-0.62
2019-03-03T05:42:45.795Z,-0.60
2019-03-03T05:45:16.173Z,-0.55
2019-03-03T05:47:46.302Z,-0.47
2019-03-03T05:50:16.363Z,-0.37
2019-03-03T05:52:46.393Z,-0.26
2019-03-03T05:55:16.694Z,-0.19
2019-03-03T05:57:47.040Z,-0.12
2019-03-03T06:00:17.110Z,-0.04
2019-03-03T06:02:47.141Z,0.03
2019-03-03T06:05:17.461Z,0.16
2019-03-03T06:07:47.789Z,0.27
2019-03-03T06:10:18.129Z,0.36
2019-03-03T06:12:48.491Z,0.49
2019-03-03T06:15:18.583Z,0.63
2019-03-03T06:17:48.887Z,0.74
2019-03-03T06:20:19.262Z,0.84
2019-03-03T06:22:49.330Z,0.91
2019-03-03T06:25:19.787Z,1.03
2019-03-03T06:27:49.924Z,1.13
2019-03-03T06:30:19.929Z,1.21
2019-03-03T06:32:50.029Z,1.27
2019-03-03T06:35:20.537Z,1.32
2019-03-03T06:37:50.806Z,1.43
2019-03-03T06:40:20.888Z,1.45
2019-03-03T06:42:50.891Z,1.49
2019-03-03T06:45:20.917Z,1.45
2019-03-03T06:47:50.918Z,1.42
2019-03-03T06:50:20.946Z,1.44
2019-03-03T06:52:51.213Z,1.50
2019-03-03T06:55:21.287Z,1.59
2019-03-03T06:57:51.579Z,1.72
2019-03-03T07:00:21.649Z,1.73
2019-03-03T07:02:51.746Z,1.77
2019-03-03T07:05:22.084Z,1.81
2019-03-03T07:07:52.171Z,1.90
2019-03-03T07:10:22.426Z,2.03
2019-03-03T07:12:52.825Z,1.99
2019-03-03T07:15:23.148Z,2.14
2019-03-03T07:17:53.502Z,2.25
2019-03-03T07:20:23.845Z,2.42
2019-03-03T07:22:53.948Z,2.67
2019-03-03T07:25:23.919Z,2.86
2019-03-03T07:27:54.200Z,3.10
2019-03-03T07:30:24.294Z,3.23
2019-03-03T07:33:03.481Z,3.40
2019-03-03T07:35:33.570Z,3.53
2019-03-03T07:38:03.984Z,3.96
2019-03-03T07:40:34.277Z,4.70
2019-03-03T07:43:04.731Z,6.11
2019-03-03T07:45:34.849Z,7.56
2019-03-03T07:48:05.075Z,9.19
2019-03-03T07:50:37.470Z,10.80
2019-03-03T07:53:07.742Z,12.15
2019-03-03T07:55:38.135Z,12.84
2019-03-03T07:58:08.543Z,13.70
2019-03-03T08:00:38.666Z,14.32
2019-03-03T08:03:08.940Z,14.87
2019-03-03T08:05:39.135Z,15.33
2019-03-03T08:08:09.181Z,15.89
2019-03-03T08:10:39.464Z,16.20
2019-03-03T08:13:09.888Z,16.59
2019-03-03T08:15:42.313Z,16.61
2019-03-03T08:18:12.479Z,16.64
2019-03-03T08:20:42.527Z,16.77
2019-03-03T08:23:13.383Z,17.07
2019-03-03T08:25:43.441Z,17.53
2019-03-03T08:28:13.759Z,17.96
2019-03-03T08:30:43.826Z,18.37
2019-03-03T08:33:15.391Z,18.61
2019-03-03T08:35:45.464Z,18.69
2019-03-03T08:38:15.750Z,18.79
2019-03-03T08:40:46.077Z,18.41
2019-03-03T08:43:27.974Z,17.22
2019-03-03T08:46:16.985Z,16.61
2019-03-03T08:48:59.223Z,15.93
2019-03-03T08:51:42.804Z,15.52
2019-03-03T08:54:14.523Z,15.19
2019-03-03T08:56:49.135Z,14.43
2019-03-03T08:59:20.815Z,13.58
2019-03-03T09:01:58.837Z,12.67
2019-03-03T09:04:47.613Z,11.98
2019-03-03T09:07:22.001Z,11.23
2019-03-03T09:10:02.155Z,10.46
2019-03-03T09:12:36.920Z,10.07
2019-03-03T09:15:28.200Z,9.52
2019-03-03T09:18:00.162Z,9.29
2019-03-03T09:20:32.031Z,9.42
2019-03-03T09:23:06.106Z,9.72
2019-03-03T09:25:49.983Z,9.99
2019-03-03T09:28:37.809Z,10.39
2019-03-03T09:31:25.486Z,10.44
2019-03-03T09:33:57.369Z,10.36
2019-03-03T09:36:35.895Z,10.12
2019-03-03T09:39:17.649Z,10.13
2019-03-03T09:41:49.303Z,10.45
2019-03-03T09:44:37.183Z,10.68
2019-03-03T09:47:11.904Z,10.76
2019-03-03T09:49:58.401Z,10.72
2019-03-03T09:52:53.523Z,10.58
2019-03-03T09:55:28.554Z,10.46
2019-03-03T09:58:09.725Z,10.30
2019-03-03T10:00:44.630Z,10.13
2019-03-03T10:03:22.488Z,10.04
2019-03-03T10:05:54.144Z,9.89
2019-03-03T10:08:31.893Z,10.19
2019-03-03T10:11:06.223Z,10.92
2019-03-03T10:13:38.167Z,11.37
2019-03-03T10:16:19.073Z,11.74
2019-03-03T10:18:53.274Z,11.86
2019-03-03T10:21:37.107Z,11.88
2019-03-03T10:24:08.853Z,11.98
2019-03-03T10:26:52.683Z,12.45
2019-03-03T10:29:33.309Z,12.63
2019-03-03T10:32:25.879Z,12.48
2019-03-03T10:35:06.704Z,12.36
2019-03-03T10:37:38.688Z,12.11
2019-03-03T10:40:27.817Z,11.79
2019-03-03T10:42:59.610Z,11.60
2019-03-03T10:45:47.719Z,11.20
2019-03-03T10:48:31.634Z,11.12
2019-03-03T10:51:20.053Z,10.92
2019-03-03T10:53:51.942Z,10.73
2019-03-03T10:56:27.053Z,10.57
2019-03-03T10:58:59.088Z,10.26
2019-03-03T11:01:39.683Z,10.04
2019-03-03T11:04:20.264Z,9.82
2019-03-03T11:07:10.445Z,9.66
2019-03-03T11:09:45.103Z,9.40
2019-03-03T11:12:23.167Z,9.23
2019-03-03T11:14:57.661Z,9.13
2019-03-03T11:17:45.440Z,8.94
2019-03-03T11:20:17.118Z,8.87
2019-03-03T11:22:48.784Z,8.71
2019-03-03T11:25:32.303Z,8.60
2019-03-03T11:28:04.001Z,8.60
2019-03-03T11:30:41.388Z,8.55
2019-03-03T11:33:31.064Z,8.54
2019-03-03T11:36:14.598Z,8.57
2019-03-03T11:38:47.166Z,8.63
2019-03-03T11:41:18.898Z,8.58
2019-03-03T11:43:49.607Z,8.50
2019-03-03T11:46:21.770Z,8.55
2019-03-03T11:48:59.962Z,8.54
2019-03-03T11:51:30.060Z,8.55
2019-03-03T11:54:08.043Z,8.49
2019-03-03T11:56:40.007Z,8.51
2019-03-03T11:59:28.299Z,8.45
2019-03-03T12:02:02.975Z,8.45
2019-03-03T12:04:47.028Z,8.43
2019-03-03T12:07:21.983Z,8.46
2019-03-03T12:10:05.548Z,8.44
2019-03-03T12:12:53.665Z,8.49
2019-03-03T12:15:28.327Z,8.50
2019-03-03T12:18:08.787Z,8.53
2019-03-03T12:20:40.781Z,8.52
2019-03-03T12:23:24.311Z,8.56
2019-03-03T12:26:01.580Z,8.54
2019-03-03T12:28:36.168Z,8.52
2019-03-03T12:31:24.177Z,8.53
2019-03-03T12:33:56.073Z,8.47
2019-03-03T12:36:44.225Z,8.40
2019-03-03T12:39:22.128Z,8.35
2019-03-03T12:41:54.090Z,8.30
2019-03-03T12:44:38.035Z,8.27
2019-03-03T12:47:26.088Z,8.11
2019-03-03T12:50:15.882Z,8.03
2019-03-03T12:52:57.181Z,8.08
2019-03-03T12:55:45.067Z,8.13
2019-03-03T12:58:17.778Z,8.29
2019-03-03T13:00:49.429Z,8.52
2019-03-03T13:03:37.402Z,8.72
2019-03-03T13:06:25.545Z,8.81
2019-03-03T13:09:00.318Z,8.91
2019-03-03T13:11:33.664Z,8.86
2019-03-03T13:14:09.450Z,8.82
2019-03-03T13:16:51.527Z,8.80
2019-03-03T13:19:23.238Z,8.75
2019-03-03T13:22:11.185Z,8.70
2019-03-03T13:24:43.216Z,8.63
2019-03-03T13:27:26.744Z,8.62
2019-03-03T13:29:58.641Z,8.56
2019-03-03T13:32:36.343Z,8.48
2019-03-03T13:35:11.127Z,8.47
2019-03-03T13:37:41.172Z,8.52
2019-03-03T13:40:16.281Z,8.56
2019-03-03T13:42:46.330Z,8.57
2019-03-03T13:45:16.923Z,8.58
2019-03-03T13:47:47.016Z,8.61
2019-03-03T13:50:17.026Z,8.61
2019-03-03T13:52:48.150Z,8.60
2019-03-03T13:55:18.210Z,8.60
2019-03-03T13:57:48.738Z,8.57
2019-03-03T14:00:23.552Z,8.55
2019-03-03T14:02:53.642Z,8.52
2019-03-03T14:05:23.664Z,8.51
2019-03-03T14:07:53.684Z,8.59
2019-03-03T14:10:23.996Z,8.63
2019-03-03T14:12:54.075Z,8.72
2019-03-03T14:15:24.337Z,8.71
2019-03-03T14:17:54.538Z,8.70
2019-03-03T14:20:24.824Z,8.64
2019-03-03T14:22:54.865Z,8.57
2019-03-03T14:25:25.137Z,8.50
2019-03-03T14:27:55.259Z,8.48
2019-03-03T14:30:28.699Z,8.42
2019-03-03T14:32:58.920Z,8.41
2019-03-03T14:35:28.973Z,8.40
2019-03-03T14:37:59.238Z,8.40
2019-03-03T14:40:29.586Z,8.41
2019-03-03T14:42:59.911Z,8.37
2019-03-03T14:45:30.314Z,8.36
2019-03-03T14:48:00.402Z,8.38
2019-03-03T14:50:30.429Z,8.34
2019-03-03T14:53:00.693Z,8.24
2019-03-03T14:55:30.778Z,8.20
2019-03-03T14:58:00.775Z,8.23
2019-03-03T15:00:34.045Z,8.24
2019-03-03T15:03:06.281Z,8.16
2019-03-03T15:05:36.298Z,8.12
2019-03-03T15:08:06.358Z,8.08
2019-03-03T15:10:36.674Z,8.04
2019-03-03T15:13:06.736Z,8.06
2019-03-03T15:15:39.558Z,8.05
2019-03-03T15:18:09.648Z,8.04
2019-03-03T15:20:40.435Z,8.03
2019-03-03T15:23:12.575Z,8.03
2019-03-03T15:25:42.906Z,7.99
2019-03-03T15:28:13.237Z,7.96
2019-03-03T15:30:44.840Z,7.95
2019-03-03T15:33:16.619Z,7.93
2019-03-03T15:35:46.924Z,7.94
2019-03-03T15:38:18.125Z,7.93
2019-03-03T15:40:48.702Z,7.95
2019-03-03T15:43:20.035Z,7.92
2019-03-03T15:45:50.325Z,7.90
2019-03-03T15:48:20.872Z,7.92
2019-03-03T15:50:51.413Z,7.91
2019-03-03T15:53:21.479Z,7.90
2019-03-03T15:55:51.734Z,7.93
2019-03-03T15:58:22.080Z,7.99
2019-03-03T16:00:52.593Z,7.98
2019-03-03T16:03:22.660Z,7.95
2019-03-03T16:05:52.659Z,8.03
2019-03-03T16:08:22.658Z,8.03
2019-03-03T16:10:52.978Z,8.03
2019-03-03T16:13:23.057Z,8.07
2019-03-03T16:15:53.348Z,8.07
2019-03-03T16:18:23.713Z,8.12
2019-03-03T16:20:54.080Z,8.21
2019-03-03T16:23:25.492Z,8.20
2019-03-03T16:25:55.578Z,8.19
2019-03-03T16:28:25.969Z,8.19
2019-03-03T16:30:56.317Z,8.20
2019-03-03T16:33:26.654Z,8.24
2019-03-03T16:35:57.008Z,8.26
2019-03-03T16:38:27.119Z,8.30
2019-03-03T16:40:57.086Z,8.34
2019-03-03T16:43:27.548Z,8.38
2019-03-03T16:45:57.870Z,8.40
2019-03-03T16:48:28.325Z,8.39
2019-03-03T16:50:58.659Z,8.36
2019-03-03T16:53:29.005Z,8.37
2019-03-03T16:55:59.094Z,8.34
2019-03-03T16:58:29.344Z,8.36
2019-03-03T17:00:59.442Z,8.40
2019-03-03T17:03:29.442Z,8.40
2019-03-03T17:05:59.490Z,8.44
2019-03-03T17:08:29.726Z,8.49
2019-03-03T17:11:00.114Z,8.52
2019-03-03T17:13:30.415Z,8.61
2019-03-03T17:16:00.758Z,8.61
2019-03-03T17:18:31.819Z,8.63
2019-03-03T17:21:02.581Z,8.71
2019-03-03T17:23:34.114Z,8.71
2019-03-03T17:26:04.113Z,8.75
2019-03-03T17:28:34.193Z,8.78
2019-03-03T17:31:04.570Z,8.79
2019-03-03T17:33:35.409Z,8.76
2019-03-03T17:36:05.483Z,8.77
2019-03-03T17:38:36.916Z,8.79
2019-03-03T17:41:07.006Z,8.82
2019-03-03T17:43:37.265Z,8.86
2019-03-03T17:46:07.359Z,8.86
2019-03-03T17:48:37.363Z,8.87
2019-03-03T17:51:07.407Z,8.87
2019-03-03T17:53:37.676Z,8.91
2019-03-03T17:56:07.813Z,8.90
2019-03-03T17:58:38.078Z,8.91
2019-03-03T18:01:09.637Z,8.95
2019-03-03T18:03:39.994Z,8.98
2019-03-03T18:06:10.430Z,8.98
2019-03-03T18:08:40.761Z,8.98
2019-03-03T18:11:11.130Z,9.05
2019-03-03T18:13:41.454Z,9.06
2019-03-03T18:16:12.370Z,9.14
2019-03-03T18:18:42.719Z,9.13
2019-03-03T18:21:13.040Z,9.20
2019-03-03T18:23:43.130Z,9.19
2019-03-03T18:26:13.420Z,9.22
2019-03-03T18:28:43.748Z,9.19
2019-03-03T18:31:14.094Z,9.18
2019-03-03T18:33:44.460Z,9.19
2019-03-03T18:36:14.695Z,9.13
2019-03-03T18:38:44.986Z,9.09
2019-03-03T18:41:15.079Z,9.09
2019-03-03T18:43:45.103Z,9.04
2019-03-03T18:46:15.118Z,9.01
2019-03-03T18:48:45.117Z,8.95
2019-03-03T18:51:15.154Z,8.94
2019-03-03T18:53:45.253Z,8.90
2019-03-03T18:56:15.250Z,8.82
2019-03-03T18:58:45.336Z,8.74
2019-03-03T19:01:15.359Z,8.68
2019-03-03T19:03:45.632Z,8.64
2019-03-03T19:06:15.743Z,8.63
2019-03-03T19:08:45.767Z,8.60
2019-03-03T19:11:17.354Z,8.55
2019-03-03T19:13:47.737Z,8.60
2019-03-03T19:16:17.795Z,8.54
2019-03-03T19:18:47.831Z,8.53
2019-03-03T19:21:17.842Z,8.48
2019-03-03T19:23:48.097Z,8.49
2019-03-03T19:26:19.089Z,8.48
2019-03-03T19:28:49.213Z,8.51
2019-03-03T19:31:20.904Z,8.45
2019-03-03T19:33:55.085Z,8.39
2019-03-03T19:36:25.182Z,8.36
2019-03-03T19:38:55.241Z,8.41
2019-03-03T19:41:25.529Z,8.39
2019-03-03T19:43:55.574Z,8.38
2019-03-03T19:46:26.088Z,8.34
2019-03-03T19:48:56.190Z,8.36
2019-03-03T19:51:26.205Z,8.34
2019-03-03T19:53:56.876Z,8.38
2019-03-03T19:56:27.098Z,8.38
2019-03-03T19:58:57.144Z,8.37
2019-03-03T20:01:27.395Z,8.34
2019-03-03T20:03:57.757Z,8.33
2019-03-03T20:06:28.098Z,8.30
2019-03-03T20:08:58.183Z,8.29
2019-03-03T20:11:28.375Z,8.31
2019-03-03T20:13:58.696Z,8.29
2019-03-03T20:16:28.791Z,8.30
2019-03-03T20:18:59.023Z,8.32
2019-03-03T20:21:29.419Z,8.31
2019-03-03T20:23:59.481Z,8.28
2019-03-03T20:26:29.495Z,8.32
2019-03-03T20:28:59.530Z,8.32
2019-03-03T20:31:29.550Z,8.48
2019-03-03T20:33:59.541Z,8.41
2019-03-03T20:36:29.578Z,8.37
2019-03-03T20:38:59.840Z,8.39
2019-03-03T20:41:30.351Z,8.42
2019-03-03T20:44:00.436Z,8.38
2019-03-03T20:46:30.488Z,8.38
2019-03-03T20:49:00.480Z,8.27
2019-03-03T20:51:30.541Z,8.37
2019-03-03T20:54:00.807Z,8.28
2019-03-03T20:56:30.894Z,8.28
2019-03-03T20:59:00.903Z,8.36
2019-03-03T21:01:30.929Z,8.39
2019-03-03T21:04:01.203Z,8.28
2019-03-03T21:06:31.537Z,8.37
2019-03-03T21:09:01.627Z,8.30
2019-03-03T21:11:33.370Z,8.30
2019-03-03T21:14:03.878Z,8.29
2019-03-03T21:16:34.389Z,8.41
2019-03-03T21:19:04.537Z,8.37
2019-03-03T21:21:34.544Z,8.38
2019-03-03T21:24:04.554Z,8.32
2019-03-03T21:26:34.603Z,8.37
2019-03-03T21:29:04.629Z,8.37
2019-03-03T21:31:35.855Z,8.29
2019-03-03T21:34:05.942Z,8.26
2019-03-03T21:36:35.948Z,8.22
2019-03-03T21:39:07.558Z,8.26
2019-03-03T21:41:38.255Z,8.22
2019-03-03T21:44:08.606Z,8.28
2019-03-03T21:46:38.720Z,8.32
2019-03-03T21:49:08.721Z,8.29
2019-03-03T21:51:38.976Z,8.29
2019-03-03T21:54:09.331Z,8.30
2019-03-03T21:56:39.695Z,8.37
2019-03-03T21:59:09.751Z,8.33
2019-03-03T22:01:40.031Z,8.34
2019-03-03T22:04:10.118Z,8.36
2019-03-03T22:06:40.439Z,8.34
2019-03-03T22:09:10.469Z,8.33
2019-03-03T22:11:42.115Z,8.32
2019-03-03T22:14:12.155Z,8.34
2019-03-03T22:16:42.172Z,8.36
2019-03-03T22:19:12.179Z,8.34
2019-03-03T22:21:42.223Z,8.33
2019-03-03T22:24:12.536Z,8.32
2019-03-03T22:26:42.739Z,8.31
2019-03-03T22:29:12.748Z,8.32
2019-03-03T22:31:42.770Z,8.33
2019-03-03T22:34:13.065Z,8.32
2019-03-03T22:36:43.099Z,8.34
2019-03-03T22:39:15.596Z,8.31
2019-03-03T22:41:45.632Z,8.30
2019-03-03T22:44:15.630Z,8.29
2019-03-03T22:46:45.909Z,8.29
2019-03-03T22:49:16.280Z,8.33
2019-03-03T22:51:46.595Z,8.29
2019-03-03T22:54:16.944Z,8.30
2019-03-03T22:56:47.014Z,8.32
2019-03-03T22:59:17.056Z,8.30
2019-03-03T23:01:47.320Z,8.29
2019-03-03T23:04:20.782Z,8.28
2019-03-03T23:07:01.757Z,8.26
2019-03-03T23:09:55.517Z,8.28
2019-03-03T23:12:45.500Z,8.25
2019-03-03T23:15:33.580Z,8.21
2019-03-03T23:18:09.892Z,8.19
2019-03-03T23:20:59.758Z,8.19
2019-03-03T23:23:45.072Z,8.16
2019-03-03T23:26:16.909Z,8.14
2019-03-03T23:28:47.424Z,8.11
2019-03-03T23:31:17.703Z,8.09
2019-03-03T23:33:49.051Z,8.12
2019-03-03T23:36:19.030Z,8.14
2019-03-03T23:38:49.282Z,8.13
2019-03-03T23:41:19.393Z,8.09
2019-03-03T23:43:49.414Z,8.07
2019-03-03T23:46:19.667Z,8.07
2019-03-03T23:48:50.017Z,8.13
2019-03-03T23:51:20.085Z,8.13
2019-03-03T23:53:50.402Z,8.06
2019-03-03T23:56:20.750Z,8.05
2019-03-03T23:58:50.813Z,8.07
